sensor_id;sensor_type;location;lat;lon;timestamp;P1;durP1;ratioP1;P2;durP2;ratioP2
24216;SDS011;12356;49.386;8.688;2024-03-06T00:01:58;8.15;;;4.88;;
24216;SDS011;12356;49.386;8.688;2024-03-06T00:04:28;8.48;;;5.07;;
24216;SDS011;12356;49.386;8.688;2024-03-06T00:07:00;9.63;;;5.13;;
24216;SDS011;12356;49.386;8.688;2024-03-06T00:09:30;11.68;;;6.10;;
24216;SDS011;12356;49.386;8.688;2024-03-06T00:12:01;8.48;;;5.15;;
24216;SDS011;12356;49.386;8.688;2024-03-06T00:14:32;9.85;;;5.88;;
24216;SDS011;12356;49.386;8.688;2024-03-06T00:17:02;8.32;;;5.50;;
24216;SDS011;12356;49.386;8.688;2024-03-06T00:19:34;10.77;;;5.82;;
24216;SDS011;12356;49.386;8.688;2024-03-06T00:22:05;10.35;;;5.88;;
24216;SDS011;12356;49.386;8.688;2024-03-06T00:24:36;7.72;;;5.45;;
24216;SDS011;12356;49.386;8.688;2024-03-06T00:27:06;8.10;;;5.57;;
24216;SDS011;12356;49.386;8.688;2024-03-06T00:29:37;11.60;;;5.90;;
24216;SDS011;12356;49.386;8.688;2024-03-06T00:32:08;11.32;;;5.65;;
24216;SDS011;12356;49.386;8.688;2024-03-06T00:34:39;11.55;;;5.53;;
24216;SDS011;12356;49.386;8.688;2024-03-06T00:37:09;9.85;;;5.43;;
24216;SDS011;12356;49.386;8.688;2024-03-06T00:39:40;10.93;;;5.75;;
24216;SDS011;12356;49.386;8.688;2024-03-06T00:42:10;8.20;;;5.57;;
24216;SDS011;12356;49.386;8.688;2024-03-06T00:44:43;11.18;;;5.70;;
24216;SDS011;12356;49.386;8.688;2024-03-06T00:47:14;7.43;;;5.20;;
24216;SDS011;12356;49.386;8.688;2024-03-06T00:49:44;9.02;;;5.25;;
24216;SDS011;12356;49.386;8.688;2024-03-06T00:52:15;9.77;;;5.13;;
24216;SDS011;12356;49.386;8.688;2024-03-06T00:54:46;9.40;;;5.15;;
24216;SDS011;12356;49.386;8.688;2024-03-06T00:57:16;12.13;;;5.28;;
24216;SDS011;12356;49.386;8.688;2024-03-06T00:59:47;8.77;;;5.28;;
24216;SDS011;12356;49.386;8.688;2024-03-06T01:02:18;9.85;;;5.13;;
24216;SDS011;12356;49.386;8.688;2024-03-06T01:04:48;10.52;;;5.53;;
24216;SDS011;12356;49.386;8.688;2024-03-06T01:07:19;11.18;;;5.53;;
24216;SDS011;12356;49.386;8.688;2024-03-06T01:09:49;8.20;;;5.47;;
24216;SDS011;12356;49.386;8.688;2024-03-06T01:12:20;7.43;;;5.63;;
24216;SDS011;12356;49.386;8.688;2024-03-06T01:14:51;8.55;;;5.25;;
24216;SDS011;12356;49.386;8.688;2024-03-06T01:17:21;8.65;;;5.78;;
24216;SDS011;12356;49.386;8.688;2024-03-06T01:19:52;10.90;;;5.65;;
24216;SDS011;12356;49.386;8.688;2024-03-06T01:22:23;8.50;;;5.38;;
24216;SDS011;12356;49.386;8.688;2024-03-06T01:24:53;10.10;;;5.90;;
24216;SDS011;12356;49.386;8.688;2024-03-06T01:27:24;8.93;;;5.57;;
24216;SDS011;12356;49.386;8.688;2024-03-06T01:29:54;9.13;;;5.28;;
24216;SDS011;12356;49.386;8.688;2024-03-06T01:32:25;9.65;;;5.32;;
24216;SDS011;12356;49.386;8.688;2024-03-06T01:34:56;8.27;;;5.45;;
24216;SDS011;12356;49.386;8.688;2024-03-06T01:37:26;11.38;;;5.80;;
24216;SDS011;12356;49.386;8.688;2024-03-06T01:39:57;9.75;;;5.60;;
24216;SDS011;12356;49.386;8.688;2024-03-06T01:42:27;8.38;;;5.55;;
24216;SDS011;12356;49.386;8.688;2024-03-06T01:44:59;7.93;;;5.50;;
24216;SDS011;12356;49.386;8.688;2024-03-06T01:47:30;11.10;;;5.70;;
24216;SDS011;12356;49.386;8.688;2024-03-06T01:50:01;8.25;;;5.32;;
24216;SDS011;12356;49.386;8.688;2024-03-06T01:52:31;10.20;;;5.50;;
24216;SDS011;12356;49.386;8.688;2024-03-06T01:55:02;7.90;;;5.18;;
24216;SDS011;12356;49.386;8.688;2024-03-06T01:57:35;9.48;;;5.60;;
24216;SDS011;12356;49.386;8.688;2024-03-06T02:00:08;9.80;;;5.37;;
24216;SDS011;12356;49.386;8.688;2024-03-06T02:02:43;7.18;;;5.30;;
24216;SDS011;12356;49.386;8.688;2024-03-06T02:05:14;8.02;;;5.53;;
24216;SDS011;12356;49.386;8.688;2024-03-06T02:07:45;8.27;;;5.50;;
24216;SDS011;12356;49.386;8.688;2024-03-06T02:10:17;9.87;;;5.20;;
24216;SDS011;12356;49.386;8.688;2024-03-06T02:12:48;9.88;;;5.47;;
24216;SDS011;12356;49.386;8.688;2024-03-06T02:15:19;11.07;;;5.60;;
24216;SDS011;12356;49.386;8.688;2024-03-06T02:17:49;7.45;;;5.43;;
24216;SDS011;12356;49.386;8.688;2024-03-06T02:20:22;8.25;;;5.38;;
24216;SDS011;12356;49.386;8.688;2024-03-06T02:22:56;9.95;;;5.47;;
24216;SDS011;12356;49.386;8.688;2024-03-06T02:25:26;8.65;;;5.78;;
24216;SDS011;12356;49.386;8.688;2024-03-06T02:27:57;8.65;;;5.75;;
24216;SDS011;12356;49.386;8.688;2024-03-06T02:30:28;7.67;;;5.50;;
24216;SDS011;12356;49.386;8.688;2024-03-06T02:33:05;10.43;;;5.72;;
24216;SDS011;12356;49.386;8.688;2024-03-06T02:35:36;9.25;;;5.20;;
24216;SDS011;12356;49.386;8.688;2024-03-06T02:38:08;8.40;;;5.90;;
24216;SDS011;12356;49.386;8.688;2024-03-06T02:40:39;9.63;;;6.38;;
24216;SDS011;12356;49.386;8.688;2024-03-06T02:43:14;8.63;;;6.13;;
24216;SDS011;12356;49.386;8.688;2024-03-06T02:45:45;8.90;;;5.82;;
24216;SDS011;12356;49.386;8.688;2024-03-06T02:48:16;11.82;;;6.57;;
24216;SDS011;12356;49.386;8.688;2024-03-06T02:50:46;8.65;;;5.95;;
24216;SDS011;12356;49.386;8.688;2024-03-06T02:53:17;9.63;;;6.35;;
24216;SDS011;12356;49.386;8.688;2024-03-06T02:55:48;9.63;;;5.78;;
24216;SDS011;12356;49.386;8.688;2024-03-06T02:58:18;8.75;;;5.90;;
24216;SDS011;12356;49.386;8.688;2024-03-06T03:00:49;9.35;;;5.07;;
24216;SDS011;12356;49.386;8.688;2024-03-06T03:03:20;9.75;;;5.15;;
24216;SDS011;12356;49.386;8.688;2024-03-06T03:05:50;7.05;;;5.00;;
24216;SDS011;12356;49.386;8.688;2024-03-06T03:08:21;11.95;;;5.28;;
24216;SDS011;12356;49.386;8.688;2024-03-06T03:10:51;8.30;;;5.30;;
24216;SDS011;12356;49.386;8.688;2024-03-06T03:13:22;7.32;;;4.95;;
24216;SDS011;12356;49.386;8.688;2024-03-06T03:15:52;6.45;;;4.82;;
24216;SDS011;12356;49.386;8.688;2024-03-06T03:18:23;10.20;;;5.35;;
24216;SDS011;12356;49.386;8.688;2024-03-06T03:20:53;10.18;;;5.15;;
24216;SDS011;12356;49.386;8.688;2024-03-06T03:23:24;9.57;;;5.30;;
24216;SDS011;12356;49.386;8.688;2024-03-06T03:25:54;8.55;;;5.60;;
24216;SDS011;12356;49.386;8.688;2024-03-06T03:28:25;7.38;;;5.22;;
24216;SDS011;12356;49.386;8.688;2024-03-06T03:30:56;6.82;;;4.82;;
24216;SDS011;12356;49.386;8.688;2024-03-06T03:33:29;8.02;;;5.28;;
24216;SDS011;12356;49.386;8.688;2024-03-06T03:36:00;7.78;;;4.90;;
24216;SDS011;12356;49.386;8.688;2024-03-06T03:38:31;8.80;;;5.18;;
24216;SDS011;12356;49.386;8.688;2024-03-06T03:41:02;8.20;;;5.28;;
24216;SDS011;12356;49.386;8.688;2024-03-06T03:43:34;8.48;;;4.90;;
24216;SDS011;12356;49.386;8.688;2024-03-06T03:46:04;10.60;;;5.70;;
24216;SDS011;12356;49.386;8.688;2024-03-06T03:48:36;10.60;;;5.82;;
24216;SDS011;12356;49.386;8.688;2024-03-06T03:51:07;11.75;;;6.07;;
24216;SDS011;12356;49.386;8.688;2024-03-06T03:53:37;9.85;;;5.78;;
24216;SDS011;12356;49.386;8.688;2024-03-06T03:56:08;9.73;;;5.47;;
24216;SDS011;12356;49.386;8.688;2024-03-06T03:58:38;9.52;;;5.93;;
24216;SDS011;12356;49.386;8.688;2024-03-06T04:01:10;12.38;;;5.95;;
24216;SDS011;12356;49.386;8.688;2024-03-06T04:03:41;12.70;;;6.07;;
24216;SDS011;12356;49.386;8.688;2024-03-06T04:06:12;14.50;;;6.47;;
24216;SDS011;12356;49.386;8.688;2024-03-06T04:08:43;15.32;;;7.00;;
24216;SDS011;12356;49.386;8.688;2024-03-06T04:11:13;10.18;;;6.10;;
24216;SDS011;12356;49.386;8.688;2024-03-06T04:13:45;11.20;;;5.60;;
24216;SDS011;12356;49.386;8.688;2024-03-06T04:16:16;10.65;;;5.95;;
24216;SDS011;12356;49.386;8.688;2024-03-06T04:18:48;10.50;;;6.07;;
24216;SDS011;12356;49.386;8.688;2024-03-06T04:21:18;11.98;;;6.28;;
24216;SDS011;12356;49.386;8.688;2024-03-06T04:23:49;10.68;;;6.28;;
24216;SDS011;12356;49.386;8.688;2024-03-06T04:26:19;12.63;;;6.60;;
24216;SDS011;12356;49.386;8.688;2024-03-06T04:28:50;11.07;;;6.45;;
24216;SDS011;12356;49.386;8.688;2024-03-06T04:31:21;12.43;;;6.57;;
24216;SDS011;12356;49.386;8.688;2024-03-06T04:33:51;15.25;;;6.75;;
24216;SDS011;12356;49.386;8.688;2024-03-06T04:36:22;11.73;;;6.70;;
24216;SDS011;12356;49.386;8.688;2024-03-06T04:38:52;11.35;;;6.72;;
24216;SDS011;12356;49.386;8.688;2024-03-06T04:41:23;11.18;;;6.40;;
24216;SDS011;12356;49.386;8.688;2024-03-06T04:43:53;11.68;;;6.53;;
24216;SDS011;12356;49.386;8.688;2024-03-06T04:46:24;12.25;;;7.18;;
24216;SDS011;12356;49.386;8.688;2024-03-06T04:48:54;11.77;;;7.22;;
24216;SDS011;12356;49.386;8.688;2024-03-06T04:51:25;12.35;;;7.10;;
24216;SDS011;12356;49.386;8.688;2024-03-06T04:53:55;11.32;;;7.00;;
24216;SDS011;12356;49.386;8.688;2024-03-06T04:56:26;12.63;;;7.13;;
24216;SDS011;12356;49.386;8.688;2024-03-06T04:58:56;11.65;;;6.57;;
24216;SDS011;12356;49.386;8.688;2024-03-06T05:01:32;11.85;;;7.35;;
24216;SDS011;12356;49.386;8.688;2024-03-06T05:04:03;12.55;;;7.18;;
24216;SDS011;12356;49.386;8.688;2024-03-06T05:06:33;14.40;;;7.30;;
24216;SDS011;12356;49.386;8.688;2024-03-06T05:09:04;13.63;;;7.00;;
24216;SDS011;12356;49.386;8.688;2024-03-06T05:11:36;12.25;;;7.35;;
24216;SDS011;12356;49.386;8.688;2024-03-06T05:14:07;16.73;;;7.50;;
24216;SDS011;12356;49.386;8.688;2024-03-06T05:16:38;13.55;;;7.15;;
24216;SDS011;12356;49.386;8.688;2024-03-06T05:19:09;13.30;;;7.03;;
24216;SDS011;12356;49.386;8.688;2024-03-06T05:21:41;11.52;;;7.25;;
24216;SDS011;12356;49.386;8.688;2024-03-06T05:24:11;13.02;;;7.00;;
24216;SDS011;12356;49.386;8.688;2024-03-06T05:26:42;15.25;;;7.53;;
24216;SDS011;12356;49.386;8.688;2024-03-06T05:29:12;14.07;;;7.55;;
24216;SDS011;12356;49.386;8.688;2024-03-06T05:31:43;12.50;;;7.18;;
24216;SDS011;12356;49.386;8.688;2024-03-06T05:34:13;15.93;;;7.88;;
24216;SDS011;12356;49.386;8.688;2024-03-06T05:36:44;14.63;;;8.13;;
24216;SDS011;12356;49.386;8.688;2024-03-06T05:39:14;12.68;;;7.07;;
24216;SDS011;12356;49.386;8.688;2024-03-06T05:41:45;13.82;;;7.55;;
24216;SDS011;12356;49.386;8.688;2024-03-06T05:44:15;16.65;;;8.00;;
24216;SDS011;12356;49.386;8.688;2024-03-06T05:46:46;13.30;;;7.43;;
24216;SDS011;12356;49.386;8.688;2024-03-06T05:49:17;14.23;;;8.10;;
24216;SDS011;12356;49.386;8.688;2024-03-06T05:51:47;11.32;;;7.53;;
24216;SDS011;12356;49.386;8.688;2024-03-06T05:54:19;12.35;;;7.68;;
24216;SDS011;12356;49.386;8.688;2024-03-06T05:56:50;12.02;;;7.65;;
24216;SDS011;12356;49.386;8.688;2024-03-06T05:59:21;15.18;;;8.82;;
24216;SDS011;12356;49.386;8.688;2024-03-06T06:01:54;13.32;;;8.65;;
24216;SDS011;12356;49.386;8.688;2024-03-06T06:04:25;14.93;;;8.27;;
24216;SDS011;12356;49.386;8.688;2024-03-06T06:06:55;16.45;;;9.40;;
24216;SDS011;12356;49.386;8.688;2024-03-06T06:09:26;17.85;;;9.60;;
24216;SDS011;12356;49.386;8.688;2024-03-06T06:11:56;15.52;;;9.73;;
24216;SDS011;12356;49.386;8.688;2024-03-06T06:14:27;19.35;;;11.00;;
24216;SDS011;12356;49.386;8.688;2024-03-06T06:16:59;18.27;;;10.48;;
24216;SDS011;12356;49.386;8.688;2024-03-06T06:19:30;18.92;;;11.93;;
24216;SDS011;12356;49.386;8.688;2024-03-06T06:22:00;22.17;;;13.38;;
24216;SDS011;12356;49.386;8.688;2024-03-06T06:24:31;19.95;;;12.13;;
24216;SDS011;12356;49.386;8.688;2024-03-06T06:27:02;22.38;;;12.85;;
24216;SDS011;12356;49.386;8.688;2024-03-06T06:29:32;22.85;;;14.10;;
24216;SDS011;12356;49.386;8.688;2024-03-06T06:32:03;24.02;;;13.75;;
24216;SDS011;12356;49.386;8.688;2024-03-06T06:34:33;22.25;;;14.32;;
24216;SDS011;12356;49.386;8.688;2024-03-06T06:37:04;23.83;;;14.18;;
24216;SDS011;12356;49.386;8.688;2024-03-06T06:39:34;21.90;;;13.73;;
24216;SDS011;12356;49.386;8.688;2024-03-06T06:42:05;22.25;;;14.18;;
24216;SDS011;12356;49.386;8.688;2024-03-06T06:44:36;22.63;;;14.35;;
24216;SDS011;12356;49.386;8.688;2024-03-06T06:47:07;21.15;;;14.02;;
24216;SDS011;12356;49.386;8.688;2024-03-06T06:49:37;25.67;;;14.48;;
24216;SDS011;12356;49.386;8.688;2024-03-06T06:52:08;22.67;;;14.80;;
24216;SDS011;12356;49.386;8.688;2024-03-06T06:54:38;25.63;;;14.18;;
24216;SDS011;12356;49.386;8.688;2024-03-06T06:57:09;24.73;;;14.20;;
24216;SDS011;12356;49.386;8.688;2024-03-06T06:59:39;25.42;;;14.68;;
24216;SDS011;12356;49.386;8.688;2024-03-06T07:02:10;25.27;;;14.63;;
24216;SDS011;12356;49.386;8.688;2024-03-06T07:04:40;21.42;;;14.32;;
24216;SDS011;12356;49.386;8.688;2024-03-06T07:07:11;23.00;;;14.48;;
24216;SDS011;12356;49.386;8.688;2024-03-06T07:09:42;23.50;;;14.70;;
24216;SDS011;12356;49.386;8.688;2024-03-06T07:12:13;26.92;;;14.82;;
24216;SDS011;12356;49.386;8.688;2024-03-06T07:14:44;25.02;;;14.77;;
24216;SDS011;12356;49.386;8.688;2024-03-06T07:17:14;25.50;;;14.10;;
24216;SDS011;12356;49.386;8.688;2024-03-06T07:19:45;21.02;;;13.93;;
24216;SDS011;12356;49.386;8.688;2024-03-06T07:22:15;20.08;;;13.73;;
24216;SDS011;12356;49.386;8.688;2024-03-06T07:24:46;20.08;;;13.40;;
24216;SDS011;12356;49.386;8.688;2024-03-06T07:27:17;22.60;;;13.38;;
24216;SDS011;12356;49.386;8.688;2024-03-06T07:29:48;23.27;;;13.65;;
24216;SDS011;12356;49.386;8.688;2024-03-06T07:32:19;21.05;;;12.95;;
24216;SDS011;12356;49.386;8.688;2024-03-06T07:34:50;20.92;;;14.05;;
24216;SDS011;12356;49.386;8.688;2024-03-06T07:37:20;20.40;;;13.23;;
24216;SDS011;12356;49.386;8.688;2024-03-06T07:39:51;20.73;;;12.80;;
24216;SDS011;12356;49.386;8.688;2024-03-06T07:42:22;19.45;;;12.80;;
24216;SDS011;12356;49.386;8.688;2024-03-06T07:44:52;20.90;;;12.88;;
24216;SDS011;12356;49.386;8.688;2024-03-06T07:47:23;20.90;;;12.60;;
24216;SDS011;12356;49.386;8.688;2024-03-06T07:49:53;22.17;;;12.45;;
24216;SDS011;12356;49.386;8.688;2024-03-06T07:52:24;24.48;;;13.63;;
24216;SDS011;12356;49.386;8.688;2024-03-06T07:54:54;19.48;;;12.38;;
24216;SDS011;12356;49.386;8.688;2024-03-06T07:57:25;22.73;;;13.07;;
24216;SDS011;12356;49.386;8.688;2024-03-06T07:59:55;24.63;;;13.23;;
24216;SDS011;12356;49.386;8.688;2024-03-06T08:02:26;21.67;;;13.00;;
24216;SDS011;12356;49.386;8.688;2024-03-06T08:04:58;20.50;;;13.23;;
24216;SDS011;12356;49.386;8.688;2024-03-06T08:07:28;20.38;;;12.98;;
24216;SDS011;12356;49.386;8.688;2024-03-06T08:09:59;20.58;;;13.57;;
24216;SDS011;12356;49.386;8.688;2024-03-06T08:12:30;23.92;;;14.10;;
24216;SDS011;12356;49.386;8.688;2024-03-06T08:15:00;19.73;;;13.45;;
24216;SDS011;12356;49.386;8.688;2024-03-06T08:17:33;26.08;;;14.40;;
24216;SDS011;12356;49.386;8.688;2024-03-06T08:20:03;23.63;;;14.18;;
24216;SDS011;12356;49.386;8.688;2024-03-06T08:22:38;24.45;;;14.95;;
24216;SDS011;12356;49.386;8.688;2024-03-06T08:25:11;23.52;;;14.40;;
24216;SDS011;12356;49.386;8.688;2024-03-06T08:27:42;26.05;;;15.35;;
24216;SDS011;12356;49.386;8.688;2024-03-06T08:30:13;29.15;;;15.18;;
24216;SDS011;12356;49.386;8.688;2024-03-06T08:32:44;25.23;;;14.68;;
24216;SDS011;12356;49.386;8.688;2024-03-06T08:35:14;26.05;;;15.60;;
24216;SDS011;12356;49.386;8.688;2024-03-06T08:37:47;24.88;;;15.63;;
24216;SDS011;12356;49.386;8.688;2024-03-06T08:40:17;24.17;;;15.73;;
24216;SDS011;12356;49.386;8.688;2024-03-06T08:42:48;28.05;;;16.70;;
24216;SDS011;12356;49.386;8.688;2024-03-06T08:45:19;26.42;;;15.98;;
24216;SDS011;12356;49.386;8.688;2024-03-06T08:47:50;29.40;;;16.45;;
24216;SDS011;12356;49.386;8.688;2024-03-06T08:50:23;29.42;;;16.70;;
24216;SDS011;12356;49.386;8.688;2024-03-06T08:52:54;24.92;;;16.17;;
24216;SDS011;12356;49.386;8.688;2024-03-06T08:55:24;29.13;;;16.58;;
24216;SDS011;12356;49.386;8.688;2024-03-06T08:57:55;26.02;;;16.08;;
24216;SDS011;12356;49.386;8.688;2024-03-06T09:00:26;26.65;;;16.38;;
24216;SDS011;12356;49.386;8.688;2024-03-06T09:02:56;29.38;;;15.77;;
24216;SDS011;12356;49.386;8.688;2024-03-06T09:05:27;27.20;;;15.88;;
24216;SDS011;12356;49.386;8.688;2024-03-06T09:07:57;24.13;;;15.07;;
24216;SDS011;12356;49.386;8.688;2024-03-06T09:10:28;26.48;;;16.15;;
24216;SDS011;12356;49.386;8.688;2024-03-06T09:12:59;26.48;;;15.93;;
24216;SDS011;12356;49.386;8.688;2024-03-06T09:15:30;28.13;;;15.85;;
24216;SDS011;12356;49.386;8.688;2024-03-06T09:18:00;33.97;;;16.85;;
24216;SDS011;12356;49.386;8.688;2024-03-06T09:20:31;23.80;;;14.82;;
24216;SDS011;12356;49.386;8.688;2024-03-06T09:23:02;26.02;;;15.00;;
24216;SDS011;12356;49.386;8.688;2024-03-06T09:25:32;22.38;;;13.70;;
24216;SDS011;12356;49.386;8.688;2024-03-06T09:28:03;21.98;;;13.77;;
24216;SDS011;12356;49.386;8.688;2024-03-06T09:30:35;23.43;;;13.07;;
24216;SDS011;12356;49.386;8.688;2024-03-06T09:33:05;25.42;;;13.30;;
24216;SDS011;12356;49.386;8.688;2024-03-06T09:35:36;20.00;;;12.98;;
24216;SDS011;12356;49.386;8.688;2024-03-06T09:38:07;23.63;;;13.70;;
24216;SDS011;12356;49.386;8.688;2024-03-06T09:40:38;20.20;;;12.82;;
24216;SDS011;12356;49.386;8.688;2024-03-06T09:43:10;17.63;;;11.73;;
24216;SDS011;12356;49.386;8.688;2024-03-06T09:45:41;22.42;;;13.38;;
24216;SDS011;12356;49.386;8.688;2024-03-06T09:48:12;21.70;;;12.53;;
24216;SDS011;12356;49.386;8.688;2024-03-06T09:50:43;22.98;;;13.05;;
24216;SDS011;12356;49.386;8.688;2024-03-06T09:53:15;18.20;;;12.18;;
24216;SDS011;12356;49.386;8.688;2024-03-06T09:55:46;18.73;;;12.00;;
24216;SDS011;12356;49.386;8.688;2024-03-06T09:58:19;19.40;;;12.20;;
24216;SDS011;12356;49.386;8.688;2024-03-06T10:00:50;18.77;;;12.10;;
24216;SDS011;12356;49.386;8.688;2024-03-06T10:03:23;16.67;;;10.98;;
24216;SDS011;12356;49.386;8.688;2024-03-06T10:05:53;19.30;;;11.90;;
24216;SDS011;12356;49.386;8.688;2024-03-06T10:08:25;15.43;;;10.05;;
24216;SDS011;12356;49.386;8.688;2024-03-06T10:10:56;16.33;;;10.43;;
24216;SDS011;12356;49.386;8.688;2024-03-06T10:13:27;18.33;;;10.88;;
24216;SDS011;12356;49.386;8.688;2024-03-06T10:16:00;15.13;;;10.10;;
24216;SDS011;12356;49.386;8.688;2024-03-06T10:18:32;22.00;;;11.00;;
24216;SDS011;12356;49.386;8.688;2024-03-06T10:21:03;18.08;;;9.80;;
24216;SDS011;12356;49.386;8.688;2024-03-06T10:23:37;15.43;;;9.80;;
24216;SDS011;12356;49.386;8.688;2024-03-06T10:26:07;18.05;;;9.88;;
24216;SDS011;12356;49.386;8.688;2024-03-06T10:28:38;16.80;;;9.73;;
24216;SDS011;12356;49.386;8.688;2024-03-06T10:31:15;19.50;;;10.45;;
24216;SDS011;12356;49.386;8.688;2024-03-06T10:33:57;16.17;;;9.77;;
24216;SDS011;12356;49.386;8.688;2024-03-06T10:36:31;15.73;;;9.60;;
24216;SDS011;12356;49.386;8.688;2024-03-06T10:39:02;15.70;;;9.82;;
24216;SDS011;12356;49.386;8.688;2024-03-06T10:41:33;20.05;;;10.82;;
24216;SDS011;12356;49.386;8.688;2024-03-06T10:44:06;19.60;;;10.82;;
24216;SDS011;12356;49.386;8.688;2024-03-06T10:46:43;19.42;;;11.15;;
24216;SDS011;12356;49.386;8.688;2024-03-06T10:49:17;16.65;;;10.73;;
24216;SDS011;12356;49.386;8.688;2024-03-06T10:51:49;16.83;;;10.45;;
24216;SDS011;12356;49.386;8.688;2024-03-06T10:54:21;17.88;;;10.32;;
24216;SDS011;12356;49.386;8.688;2024-03-06T10:56:53;18.63;;;10.88;;
24216;SDS011;12356;49.386;8.688;2024-03-06T10:59:26;20.48;;;10.95;;
24216;SDS011;12356;49.386;8.688;2024-03-06T11:01:58;19.80;;;11.88;;
24216;SDS011;12356;49.386;8.688;2024-03-06T11:04:32;22.27;;;12.02;;
24216;SDS011;12356;49.386;8.688;2024-03-06T11:07:06;21.75;;;12.95;;
24216;SDS011;12356;49.386;8.688;2024-03-06T11:09:37;22.55;;;13.55;;
24216;SDS011;12356;49.386;8.688;2024-03-06T11:12:09;23.60;;;12.70;;
24216;SDS011;12356;49.386;8.688;2024-03-06T11:14:40;21.00;;;12.65;;
24216;SDS011;12356;49.386;8.688;2024-03-06T11:17:10;21.80;;;13.40;;
24216;SDS011;12356;49.386;8.688;2024-03-06T11:28:21;24.88;;;13.43;;
24216;SDS011;12356;49.386;8.688;2024-03-06T11:33:45;23.65;;;13.32;;
24216;SDS011;12356;49.386;8.688;2024-03-06T11:36:20;22.27;;;13.75;;
24216;SDS011;12356;49.386;8.688;2024-03-06T11:38:53;23.70;;;13.85;;
24216;SDS011;12356;49.386;8.688;2024-03-06T11:41:29;21.40;;;12.95;;
24216;SDS011;12356;49.386;8.688;2024-03-06T11:44:00;25.67;;;13.95;;
24216;SDS011;12356;49.386;8.688;2024-03-06T11:46:41;21.77;;;13.93;;
24216;SDS011;12356;49.386;8.688;2024-03-06T11:49:16;21.45;;;13.13;;
24216;SDS011;12356;49.386;8.688;2024-03-06T11:51:51;21.80;;;13.07;;
24216;SDS011;12356;49.386;8.688;2024-03-06T11:54:22;22.45;;;12.63;;
24216;SDS011;12356;49.386;8.688;2024-03-06T11:56:56;25.45;;;12.50;;
24216;SDS011;12356;49.386;8.688;2024-03-06T11:59:33;23.70;;;13.18;;
24216;SDS011;12356;49.386;8.688;2024-03-06T12:02:09;20.60;;;12.75;;
24216;SDS011;12356;49.386;8.688;2024-03-06T12:04:41;23.83;;;12.85;;
24216;SDS011;12356;49.386;8.688;2024-03-06T12:07:11;22.83;;;12.68;;
24216;SDS011;12356;49.386;8.688;2024-03-06T12:09:43;23.50;;;13.15;;
24216;SDS011;12356;49.386;8.688;2024-03-06T12:12:14;22.20;;;13.38;;
24216;SDS011;12356;49.386;8.688;2024-03-06T12:14:55;22.55;;;13.57;;
24216;SDS011;12356;49.386;8.688;2024-03-06T12:17:41;21.30;;;13.25;;
24216;SDS011;12356;49.386;8.688;2024-03-06T12:20:18;22.17;;;13.43;;
24216;SDS011;12356;49.386;8.688;2024-03-06T12:22:49;24.50;;;13.50;;
24216;SDS011;12356;49.386;8.688;2024-03-06T12:25:22;24.58;;;14.25;;
24216;SDS011;12356;49.386;8.688;2024-03-06T12:27:54;24.30;;;14.00;;
24216;SDS011;12356;49.386;8.688;2024-03-06T12:30:25;22.85;;;13.88;;
24216;SDS011;12356;49.386;8.688;2024-03-06T12:32:56;21.50;;;13.88;;
24216;SDS011;12356;49.386;8.688;2024-03-06T12:35:27;23.77;;;14.30;;
24216;SDS011;12356;49.386;8.688;2024-03-06T12:37:58;23.13;;;14.43;;
24216;SDS011;12356;49.386;8.688;2024-03-06T12:40:28;24.85;;;14.20;;
24216;SDS011;12356;49.386;8.688;2024-03-06T12:42:59;23.10;;;14.18;;
24216;SDS011;12356;49.386;8.688;2024-03-06T12:45:29;22.13;;;14.35;;
24216;SDS011;12356;49.386;8.688;2024-03-06T12:48:00;23.95;;;14.10;;
24216;SDS011;12356;49.386;8.688;2024-03-06T12:50:31;22.58;;;14.30;;
24216;SDS011;12356;49.386;8.688;2024-03-06T12:53:02;22.15;;;13.63;;
24216;SDS011;12356;49.386;8.688;2024-03-06T12:55:34;21.60;;;13.75;;
24216;SDS011;12356;49.386;8.688;2024-03-06T12:58:05;22.67;;;13.65;;
24216;SDS011;12356;49.386;8.688;2024-03-06T13:00:37;23.65;;;13.77;;
24216;SDS011;12356;49.386;8.688;2024-03-06T13:03:07;25.98;;;14.50;;
24216;SDS011;12356;49.386;8.688;2024-03-06T13:05:38;22.25;;;13.95;;
24216;SDS011;12356;49.386;8.688;2024-03-06T13:08:09;21.98;;;14.13;;
24216;SDS011;12356;49.386;8.688;2024-03-06T13:10:44;22.95;;;14.45;;
24216;SDS011;12356;49.386;8.688;2024-03-06T13:13:15;23.05;;;14.13;;
24216;SDS011;12356;49.386;8.688;2024-03-06T13:15:45;20.92;;;13.40;;
24216;SDS011;12356;49.386;8.688;2024-03-06T13:20:48;25.40;;;14.50;;
24216;SDS011;12356;49.386;8.688;2024-03-06T13:23:19;22.67;;;14.77;;
24216;SDS011;12356;49.386;8.688;2024-03-06T13:25:50;21.17;;;14.00;;
24216;SDS011;12356;49.386;8.688;2024-03-06T13:28:20;23.98;;;14.63;;
24216;SDS011;12356;49.386;8.688;2024-03-06T13:30:51;24.23;;;14.30;;
24216;SDS011;12356;49.386;8.688;2024-03-06T13:33:21;22.55;;;14.40;;
24216;SDS011;12356;49.386;8.688;2024-03-06T13:35:53;25.08;;;14.85;;
24216;SDS011;12356;49.386;8.688;2024-03-06T13:38:25;25.33;;;14.15;;
24216;SDS011;12356;49.386;8.688;2024-03-06T13:40:56;23.70;;;13.80;;
24216;SDS011;12356;49.386;8.688;2024-03-06T13:43:26;23.23;;;14.23;;
24216;SDS011;12356;49.386;8.688;2024-03-06T13:45:57;25.70;;;14.25;;
24216;SDS011;12356;49.386;8.688;2024-03-06T13:48:27;21.83;;;13.85;;
24216;SDS011;12356;49.386;8.688;2024-03-06T13:50:58;23.50;;;13.77;;
24216;SDS011;12356;49.386;8.688;2024-03-06T13:53:29;26.02;;;14.05;;
24216;SDS011;12356;49.386;8.688;2024-03-06T13:56:00;22.30;;;14.73;;
24216;SDS011;12356;49.386;8.688;2024-03-06T13:58:31;24.83;;;14.80;;
24216;SDS011;12356;49.386;8.688;2024-03-06T14:01:01;21.77;;;13.95;;
24216;SDS011;12356;49.386;8.688;2024-03-06T14:03:32;23.77;;;14.38;;
24216;SDS011;12356;49.386;8.688;2024-03-06T14:06:07;20.73;;;13.05;;
24216;SDS011;12356;49.386;8.688;2024-03-06T14:08:39;21.65;;;13.02;;
24216;SDS011;12356;49.386;8.688;2024-03-06T14:11:11;22.53;;;12.50;;
24216;SDS011;12356;49.386;8.688;2024-03-06T14:13:41;20.25;;;12.93;;
24216;SDS011;12356;49.386;8.688;2024-03-06T14:16:12;20.63;;;12.10;;
24216;SDS011;12356;49.386;8.688;2024-03-06T14:18:43;20.35;;;11.90;;
24216;SDS011;12356;49.386;8.688;2024-03-06T14:21:13;22.10;;;12.13;;
24216;SDS011;12356;49.386;8.688;2024-03-06T14:23:44;20.88;;;12.65;;
24216;SDS011;12356;49.386;8.688;2024-03-06T14:26:14;20.42;;;12.57;;
24216;SDS011;12356;49.386;8.688;2024-03-06T14:28:46;19.60;;;11.75;;
24216;SDS011;12356;49.386;8.688;2024-03-06T14:31:16;22.77;;;12.55;;
24216;SDS011;12356;49.386;8.688;2024-03-06T14:33:47;21.73;;;13.52;;
24216;SDS011;12356;49.386;8.688;2024-03-06T14:36:19;22.47;;;12.23;;
24216;SDS011;12356;49.386;8.688;2024-03-06T14:41:22;23.00;;;13.55;;
24216;SDS011;12356;49.386;8.688;2024-03-06T14:43:53;22.50;;;12.38;;
24216;SDS011;12356;49.386;8.688;2024-03-06T14:46:23;21.13;;;12.73;;
24216;SDS011;12356;49.386;8.688;2024-03-06T14:48:54;23.58;;;13.50;;
24216;SDS011;12356;49.386;8.688;2024-03-06T14:51:26;23.73;;;13.65;;
24216;SDS011;12356;49.386;8.688;2024-03-06T14:53:57;21.50;;;13.13;;
24216;SDS011;12356;49.386;8.688;2024-03-06T14:56:27;23.85;;;13.80;;
24216;SDS011;12356;49.386;8.688;2024-03-06T14:58:58;26.27;;;16.20;;
24216;SDS011;12356;49.386;8.688;2024-03-06T15:01:28;24.42;;;14.10;;
24216;SDS011;12356;49.386;8.688;2024-03-06T15:03:59;23.42;;;13.85;;
24216;SDS011;12356;49.386;8.688;2024-03-06T15:06:29;23.38;;;14.05;;
24216;SDS011;12356;49.386;8.688;2024-03-06T15:09:00;25.25;;;13.63;;
24216;SDS011;12356;49.386;8.688;2024-03-06T15:11:31;23.98;;;13.48;;